Ana Sayfa
METAR-TAF:

METAR-TAF

Havaalanları :

Port-Gentil, Gabon

Enlem: 00-42S, Boylam: 008-45E, yükseklik: 3 m

Güncel hava durumu gözlemi

Rapor saat 16:00 UTC de 1 saat ve 4 dakika önce yapıldı.
Rüzgar güney/güneybatıdan 11 kt
Sıcaklık 31°C
Nem 66%
Basınç 1007 hPa
Görüş mesafesi 10 km veya daha fazla
1200 ft yükseklikte az bulutlu

METAR: FOOG 021600Z 20011KT 9999 FEW012 31/24 Q1007

Saat: 18:04 (17:04 UTC)

Tahmin

Rapor saat 11:00 UTC de 6 saat ve 4 dakika önce yapıldı.
Ayın 02'si saat 12 UTC'den ayın 03'si saat 12 UTC'ye kadar geçerli Tahmin
Rüzgar güneydoğudan 8 kt
Görüş mesafesi 10 km veya daha fazla
1200 ft yükseklikte parçalı bulutlu
Geçici
ayın 02'si saat 13 UTC'den ayın 02'si saat 20 UTC'ye kadar
1000 ft yükseklikte parçalı çok bulutlu
2000 ft yükseklikte az bulutlu, Kümülonimbus.
gök gürültülü fırtına

TAF: FOOG 021100Z 0212/0312 14008KT 9999 SCT012 TEMPO 0213/0220 TS BKN010 FEW020CB

4.000'den fazla havaalanı için hava durumu gözlemleri ve tahminleri (METAR ve TAF raporları).

Kullanılabilir istasyonlar harita üzerinde sarı ve kırmızı noktalarla gösterilir.

İstasyonun adını görmek için fareyi noktanın üzerinde gezdirin.

Sonrasında hava gözlem ve tahminlerini görmek için tıklayın.

Haritayı değiştirmek için: yaklaştırmak için siyah artı işaretli yeşil düğmeye ve uzaklaştırmak için de eksi işaretli düğmeye hızla tıklayın; bitişik haritalar için yeşil okları kullanın.


METAR-TAF: